Time;durP1;ratioP1;P1;durP2;ratioP2;P2;SDS_P1;SDS_P2;PMS_P1;PMS_P2;Temp;Humidity;BMP_temperature;BMP_pressure;BME280_temperature;BME280_humidity;BME280_pressure;Samples;Min_cycle;Max_cycle;Signal;HPM_P1;HPM_P2
2021/09/09 00:03:54;;;;;;;;;;;23.80;46.50;;;;;;8364081;28;19923;-48
2021/09/09 00:07:54;;;;;;;;;;;23.80;46.50;;;;;;8364909;28;19933;-47
2021/09/09 00:11:55;;;;;;;;;;;23.70;46.50;;;;;;8364090;28;20012;-50
2021/09/09 00:15:55;;;;;;;;;;;23.80;46.50;;;;;;8363548;28;19917;-48
2021/09/09 00:19:56;;;;;;;;;;;23.80;46.50;;;;;;8363871;28;19917;-49
2021/09/09 00:23:56;;;;;;;;;;;23.80;46.50;;;;;;8371513;28;19919;-48
2021/09/09 00:27:57;;;;;;;;;;;23.80;46.50;;;;;;8392412;28;19916;-48
2021/09/09 00:31:58;;;;;;;;;;;23.80;46.50;;;;;;8377976;28;19916;-47
2021/09/09 00:35:59;;;;;;;;;;;23.80;46.50;;;;;;8363523;28;19979;-48
2021/09/09 00:39:59;;;;;;;;;;;23.70;46.50;;;;;;8363809;28;19913;-49
2021/09/09 00:44:00;;;;;;;;;;;23.70;46.50;;;;;;8363700;28;19924;-48
2021/09/09 00:48:01;;;;;;;;;;;23.70;46.50;;;;;;8363538;28;19924;-48
2021/09/09 00:52:02;;;;;;;;;;;23.70;46.50;;;;;;8362645;28;19917;-47
2021/09/09 00:56:03;;;;;;;;;;;23.70;46.50;;;;;;8363297;28;19924;-48
2021/09/09 01:00:04;;;;;;;;;;;23.70;46.50;;;;;;8363686;28;19913;-48
2021/09/09 01:04:04;;;;;;;;;;;23.70;46.50;;;;;;8362493;28;19970;-48
2021/09/09 01:08:05;;;;;;;;;;;23.70;46.50;;;;;;8362908;28;20370;-49
2021/09/09 01:12:06;;;;;;;;;;;23.70;46.50;;;;;;8362795;28;20385;-48
2021/09/09 01:16:06;;;;;;;;;;;23.70;46.50;;;;;;8363163;28;19913;-48
2021/09/09 01:20:07;;;;;;;;;;;23.70;46.60;;;;;;8362755;28;19917;-50
2021/09/09 01:24:09;;;;;;;;;;;23.70;46.50;;;;;;8362590;28;19925;-48
2021/09/09 01:28:09;;;;;;;;;;;23.70;46.60;;;;;;8362325;28;20426;-48
2021/09/09 01:32:10;;;;;;;;;;;23.70;46.60;;;;;;8362967;28;19920;-49
2021/09/09 01:36:10;;;;;;;;;;;23.70;46.60;;;;;;8368159;28;19920;-48
2021/09/09 01:40:11;;;;;;;;;;;23.60;46.50;;;;;;8368342;28;19925;-49
2021/09/09 01:44:12;;;;;;;;;;;23.60;46.50;;;;;;8368988;28;19948;-49
2021/09/09 01:48:12;;;;;;;;;;;23.60;46.60;;;;;;8368764;28;19931;-50
2021/09/09 01:52:13;;;;;;;;;;;23.70;46.60;;;;;;8368609;28;20384;-48
2021/09/09 01:56:13;;;;;;;;;;;23.60;46.60;;;;;;8368152;28;20401;-49
2021/09/09 02:00:14;;;;;;;;;;;23.60;46.60;;;;;;8368357;28;19917;-48
2021/09/09 02:04:14;;;;;;;;;;;23.60;46.60;;;;;;8367983;28;19921;-49
2021/09/09 02:08:15;;;;;;;;;;;23.60;46.60;;;;;;8369011;28;19917;-48
2021/09/09 02:12:15;;;;;;;;;;;23.60;46.60;;;;;;8367926;28;19935;-48
2021/09/09 02:16:16;;;;;;;;;;;23.60;46.60;;;;;;8367439;28;19917;-48
2021/09/09 02:20:16;;;;;;;;;;;23.60;46.60;;;;;;8367563;28;19917;-48
2021/09/09 02:24:17;;;;;;;;;;;23.60;46.60;;;;;;8367677;28;19913;-48
2021/09/09 02:28:17;;;;;;;;;;;23.60;46.60;;;;;;8367739;28;19962;-48
2021/09/09 02:32:18;;;;;;;;;;;23.50;46.60;;;;;;8367510;28;19924;-49
2021/09/09 02:36:18;;;;;;;;;;;23.60;46.60;;;;;;8367275;28;19944;-49
2021/09/09 02:40:19;;;;;;;;;;;23.50;46.60;;;;;;8366527;28;19917;-48
2021/09/09 02:44:19;;;;;;;;;;;23.50;46.60;;;;;;8367677;28;19920;-46
2021/09/09 02:48:20;;;;;;;;;;;23.50;46.60;;;;;;8366025;28;19917;-46
2021/09/09 02:52:20;;;;;;;;;;;23.50;46.70;;;;;;8366118;28;20015;-49
2021/09/09 02:56:21;;;;;;;;;;;23.50;46.70;;;;;;8366302;28;19916;-47
2021/09/09 03:00:21;;;;;;;;;;;23.50;46.70;;;;;;8367018;28;19979;-48
2021/09/09 03:04:22;;;;;;;;;;;23.50;46.70;;;;;;8365854;28;20281;-49
2021/09/09 03:08:22;;;;;;;;;;;23.40;46.60;;;;;;8366059;28;20340;-49
2021/09/09 03:12:22;;;;;;;;;;;23.50;46.70;;;;;;8365942;28;20044;-48
2021/09/09 03:16:23;;;;;;;;;;;23.50;46.70;;;;;;8365339;28;20293;-48
2021/09/09 03:20:23;;;;;;;;;;;23.50;46.70;;;;;;8366407;28;19912;-48
2021/09/09 03:24:24;;;;;;;;;;;23.50;46.70;;;;;;8365526;28;19917;-49
2021/09/09 03:28:24;;;;;;;;;;;23.50;46.70;;;;;;8364860;28;19917;-48
2021/09/09 03:32:25;;;;;;;;;;;23.40;46.70;;;;;;8365092;28;20377;-48
2021/09/09 03:36:25;;;;;;;;;;;23.40;46.70;;;;;;8366076;28;19913;-49
2021/09/09 03:40:26;;;;;;;;;;;23.40;46.70;;;;;;8364543;28;19917;-49
2021/09/09 03:44:26;;;;;;;;;;;23.40;46.70;;;;;;8364825;28;19917;-49
2021/09/09 03:48:26;;;;;;;;;;;23.40;46.70;;;;;;8364784;28;19917;-50
2021/09/09 03:52:27;;;;;;;;;;;23.40;46.70;;;;;;8365010;28;19923;-49
2021/09/09 03:56:27;;;;;;;;;;;23.40;46.70;;;;;;8364237;28;20003;-49
2021/09/09 04:00:28;;;;;;;;;;;23.40;46.70;;;;;;8364438;28;19917;-47
2021/09/09 04:04:29;;;;;;;;;;;23.40;46.70;;;;;;8362646;28;19916;-48
2021/09/09 04:08:30;;;;;;;;;;;23.40;46.70;;;;;;8375543;28;19935;-48
2021/09/09 04:12:30;;;;;;;;;;;23.40;46.80;;;;;;8364917;28;19917;-51
2021/09/09 04:16:31;;;;;;;;;;;23.40;46.80;;;;;;8363575;28;19916;-47
2021/09/09 04:20:31;;;;;;;;;;;23.40;47.30;;;;;;8363882;28;19917;-48
2021/09/09 04:24:32;;;;;;;;;;;23.40;46.80;;;;;;8363837;28;20293;-48
2021/09/09 04:28:32;;;;;;;;;;;23.30;46.70;;;;;;8364093;28;20127;-48
2021/09/09 04:32:33;;;;;;;;;;;23.30;46.80;;;;;;8363654;28;19932;-52
2021/09/09 04:36:33;;;;;;;;;;;23.30;46.70;;;;;;8363541;28;20343;-51
2021/09/09 04:40:34;;;;;;;;;;;23.30;46.80;;;;;;8363090;28;19917;-48
2021/09/09 04:44:34;;;;;;;;;;;23.30;46.80;;;;;;8363696;28;19913;-48
2021/09/09 04:48:35;;;;;;;;;;;23.30;46.80;;;;;;8363701;28;19917;-48
2021/09/09 04:52:36;;;;;;;;;;;23.30;46.80;;;;;;8362696;28;19966;-47
2021/09/09 04:56:36;;;;;;;;;;;23.30;46.80;;;;;;8363055;28;19917;-48
2021/09/09 05:00:37;;;;;;;;;;;23.30;46.80;;;;;;8363036;28;19917;-47
2021/09/09 05:04:38;;;;;;;;;;;23.30;46.80;;;;;;8363481;28;20003;-49
2021/09/09 05:08:39;;;;;;;;;;;23.30;46.80;;;;;;8364277;28;19978;-48
2021/09/09 05:12:39;;;;;;;;;;;23.30;46.80;;;;;;8370209;28;19924;-48
2021/09/09 05:16:40;;;;;;;;;;;23.30;46.80;;;;;;8369129;28;19944;-47
2021/09/09 05:20:40;;;;;;;;;;;23.30;46.80;;;;;;8370300;28;20413;-48
2021/09/09 05:24:41;;;;;;;;;;;23.30;46.80;;;;;;8369496;28;19953;-48
2021/09/09 05:28:41;;;;;;;;;;;23.30;46.80;;;;;;8368849;28;19986;-48
2021/09/09 05:32:42;;;;;;;;;;;23.30;46.80;;;;;;8368948;28;19929;-49
2021/09/09 05:36:42;;;;;;;;;;;23.20;46.80;;;;;;8368930;28;19924;-49
2021/09/09 05:40:43;;;;;;;;;;;23.20;46.80;;;;;;8368798;28;19917;-48
2021/09/09 05:44:43;;;;;;;;;;;23.20;46.80;;;;;;8368803;28;20016;-48
2021/09/09 05:48:43;;;;;;;;;;;23.20;46.80;;;;;;8368446;28;20019;-50
2021/09/09 05:52:45;;;;;;;;;;;23.20;46.80;;;;;;8367831;28;19925;-48
2021/09/09 05:56:45;;;;;;;;;;;23.20;46.80;;;;;;8369282;28;19913;-48
2021/09/09 06:00:45;;;;;;;;;;;23.20;46.80;;;;;;8367987;28;19916;-49
2021/09/09 06:04:47;;;;;;;;;;;23.20;46.80;;;;;;8367729;28;20262;-48
2021/09/09 06:08:47;;;;;;;;;;;23.20;46.80;;;;;;8368033;28;20004;-50
2021/09/09 06:12:48;;;;;;;;;;;23.20;46.80;;;;;;8368394;28;19921;-48
2021/09/09 06:16:48;;;;;;;;;;;23.20;46.70;;;;;;8367199;28;19924;-48
2021/09/09 06:20:49;;;;;;;;;;;23.30;46.70;;;;;;8367414;28;20301;-48
2021/09/09 06:24:49;;;;;;;;;;;23.30;46.70;;;;;;8367629;28;19924;-48
2021/09/09 06:28:49;;;;;;;;;;;23.30;46.60;;;;;;8367075;28;19919;-49
2021/09/09 06:32:50;;;;;;;;;;;23.30;46.50;;;;;;8367820;28;19921;-48
2021/09/09 06:36:50;;;;;;;;;;;23.40;46.50;;;;;;8366961;28;19921;-49
2021/09/09 06:40:51;;;;;;;;;;;23.40;46.50;;;;;;8366514;28;19921;-49
2021/09/09 06:44:51;;;;;;;;;;;23.30;46.50;;;;;;8367092;28;19921;-47
2021/09/09 06:48:52;;;;;;;;;;;23.40;46.50;;;;;;8367117;28;19916;-47
2021/09/09 06:52:52;;;;;;;;;;;23.40;46.50;;;;;;8366600;28;20011;-48
2021/09/09 06:56:52;;;;;;;;;;;23.40;46.50;;;;;;8366498;28;20327;-48
2021/09/09 07:00:53;;;;;;;;;;;23.30;46.50;;;;;;8365889;28;20369;-48
2021/09/09 07:04:53;;;;;;;;;;;23.30;46.50;;;;;;8366925;28;19917;-48
2021/09/09 07:08:54;;;;;;;;;;;23.30;46.50;;;;;;8366058;28;19990;-47
2021/09/09 07:12:54;;;;;;;;;;;23.30;46.60;;;;;;8365462;28;19993;-52
2021/09/09 07:16:55;;;;;;;;;;;23.30;46.60;;;;;;8365824;28;20405;-51
2021/09/09 07:20:56;;;;;;;;;;;23.30;46.60;;;;;;8365856;28;20527;-48
2021/09/09 07:24:56;;;;;;;;;;;23.30;46.60;;;;;;8365844;28;20365;-48
2021/09/09 07:28:57;;;;;;;;;;;23.30;46.60;;;;;;8365467;28;20385;-48
2021/09/09 07:32:57;;;;;;;;;;;23.30;46.60;;;;;;8364579;28;20369;-47
2021/09/09 07:36:58;;;;;;;;;;;23.30;46.70;;;;;;8364712;28;19921;-47
2021/09/09 07:40:58;;;;;;;;;;;23.30;46.70;;;;;;8365537;28;19999;-48
2021/09/09 07:44:58;;;;;;;;;;;23.30;46.70;;;;;;8365138;28;19921;-48
2021/09/09 07:48:59;;;;;;;;;;;23.30;46.70;;;;;;8364490;28;19913;-48
2021/09/09 07:52:59;;;;;;;;;;;23.30;46.70;;;;;;8364426;28;19924;-48
2021/09/09 07:57:00;;;;;;;;;;;23.30;46.70;;;;;;8365121;28;20284;-50
2021/09/09 08:01:00;;;;;;;;;;;23.30;46.80;;;;;;8397170;28;19959;-49
2021/09/09 08:05:01;;;;;;;;;;;23.30;47.30;;;;;;8397502;28;20349;-49
2021/09/09 08:09:01;;;;;;;;;;;23.30;46.80;;;;;;8397350;28;20014;-50
2021/09/09 08:13:02;;;;;;;;;;;23.30;46.80;;;;;;8396616;28;19935;-49
2021/09/09 08:17:02;;;;;;;;;;;23.30;46.80;;;;;;8397744;28;19913;-47
2021/09/09 08:21:03;;;;;;;;;;;23.30;46.80;;;;;;8397145;28;20381;-49
2021/09/09 08:25:03;;;;;;;;;;;23.30;46.80;;;;;;8396448;28;19920;-47
2021/09/09 08:29:04;;;;;;;;;;;23.30;46.80;;;;;;8396996;28;19967;-48
2021/09/09 08:33:05;;;;;;;;;;;23.40;46.90;;;;;;8397307;28;19925;-48
2021/09/09 08:37:05;;;;;;;;;;;23.40;46.90;;;;;;8396172;28;19916;-48
2021/09/09 08:41:06;;;;;;;;;;;23.40;46.90;;;;;;8396584;28;19921;-50
2021/09/09 08:45:06;;;;;;;;;;;23.40;46.90;;;;;;8395406;28;19916;-48
2021/09/09 08:49:07;;;;;;;;;;;23.40;46.90;;;;;;8396573;28;19916;-49
2021/09/09 08:53:09;;;;;;;;;;;23.40;46.80;;;;;;8396757;28;19966;-49
2021/09/09 08:57:09;;;;;;;;;;;23.40;46.80;;;;;;8396405;28;19917;-50
2021/09/09 09:01:10;;;;;;;;;;;23.40;46.80;;;;;;8395798;28;20393;-50
2021/09/09 09:05:10;;;;;;;;;;;23.40;46.80;;;;;;8396565;28;19916;-48
2021/09/09 09:09:12;;;;;;;;;;;23.50;46.80;;;;;;8396789;28;19920;-48
2021/09/09 09:13:12;;;;;;;;;;;23.50;46.80;;;;;;8395469;28;19933;-48
2021/09/09 09:17:13;;;;;;;;;;;23.50;46.80;;;;;;8396236;28;20025;-48
2021/09/09 09:21:14;;;;;;;;;;;23.50;46.80;;;;;;8395970;28;20049;-49
2021/09/09 09:25:15;;;;;;;;;;;23.50;46.80;;;;;;8394866;28;19919;-48
2021/09/09 09:29:23;;;;;;;;;;;23.50;46.80;;;;;;8395700;28;19928;-49
2021/09/09 09:33:31;;;;;;;;;;;23.50;46.80;;;;;;8395938;28;20033;-52
2021/09/09 09:37:31;;;;;;;;;;;23.60;46.80;;;;;;8395130;28;20289;-49
2021/09/09 09:41:32;;;;;;;;;;;23.60;46.80;;;;;;8394551;28;19923;-49
2021/09/09 09:45:32;;;;;;;;;;;23.60;46.80;;;;;;8396282;28;19912;-48
2021/09/09 09:49:33;;;;;;;;;;;23.60;46.90;;;;;;8395276;28;19916;-48
2021/09/09 09:53:33;;;;;;;;;;;23.60;46.80;;;;;;8395392;28;19935;-48
2021/09/09 09:57:49;;;;;;;;;;;23.60;46.80;;;;;;8400924;28;20292;-48
2021/09/09 10:01:50;;;;;;;;;;;23.70;46.80;;;;;;8401555;28;19913;-49
2021/09/09 10:05:51;;;;;;;;;;;23.60;46.70;;;;;;8401814;28;20292;-48
2021/09/09 10:09:52;;;;;;;;;;;23.70;46.80;;;;;;8400538;28;19920;-47
2021/09/09 10:13:54;;;;;;;;;;;23.70;46.80;;;;;;8400883;28;20350;-48
2021/09/09 10:17:55;;;;;;;;;;;23.70;46.80;;;;;;8401135;28;19925;-48
2021/09/09 10:22:02;;;;;;;;;;;23.70;46.70;;;;;;8401132;28;19912;-49
2021/09/09 10:26:03;;;;;;;;;;;23.80;46.70;;;;;;8400618;28;19917;-49
2021/09/09 10:30:04;;;;;;;;;;;23.80;46.70;;;;;;8400550;28;19917;-50
2021/09/09 10:34:06;;;;;;;;;;;23.80;46.70;;;;;;8400050;28;19924;-48
2021/09/09 10:38:15;;;;;;;;;;;23.80;46.70;;;;;;8401322;28;20000;-48
2021/09/09 10:42:35;;;;;;;;;;;23.80;46.60;;;;;;8400769;28;19931;-50
2021/09/09 10:46:45;;;;;;;;;;;23.90;46.70;;;;;;8399583;28;19923;-48
2021/09/09 10:51:06;;;;;;;;;;;23.90;46.60;;;;;;8400206;28;19916;-51
2021/09/09 10:55:10;;;;;;;;;;;24.00;46.70;;;;;;8399520;28;20250;-48
2021/09/09 10:59:12;;;;;;;;;;;24.00;46.60;;;;;;8399831;28;19959;-48
2021/09/09 11:03:32;;;;;;;;;;;24.00;46.50;;;;;;8400407;28;20382;-46
2021/09/09 11:07:32;;;;;;;;;;;24.00;46.60;;;;;;8397806;28;19939;-47
2021/09/09 11:11:33;;;;;;;;;;;24.00;46.50;;;;;;8399117;28;19924;-48
2021/09/09 11:15:34;;;;;;;;;;;24.00;46.50;;;;;;8398916;28;20377;-48
2021/09/09 11:19:34;;;;;;;;;;;24.00;46.50;;;;;;8399406;28;19924;-47
2021/09/09 11:23:35;;;;;;;;;;;24.00;46.50;;;;;;8399118;28;19923;-47
2021/09/09 11:27:36;;;;;;;;;;;24.00;46.50;;;;;;8398928;28;20323;-48
2021/09/09 11:31:47;;;;;;;;;;;24.10;46.60;;;;;;8398187;28;19923;-48
2021/09/09 11:36:00;;;;;;;;;;;24.10;46.50;;;;;;8398226;28;19928;-46
2021/09/09 11:40:02;;;;;;;;;;;24.10;46.50;;;;;;8398620;28;19924;-47
2021/09/09 11:44:05;;;;;;;;;;;24.10;46.50;;;;;;8398130;28;19958;-47
2021/09/09 11:48:06;;;;;;;;;;;24.20;46.50;;;;;;8397827;28;19923;-48
2021/09/09 11:52:08;;;;;;;;;;;24.20;46.40;;;;;;8397419;28;20261;-51
2021/09/09 11:56:18;;;;;;;;;;;24.30;46.50;;;;;;8398248;28;19924;-46
2021/09/09 12:00:19;;;;;;;;;;;24.20;46.40;;;;;;8398227;28;19995;-47
2021/09/09 12:04:20;;;;;;;;;;;24.30;46.40;;;;;;8397081;28;19916;-48
2021/09/09 12:08:21;;;;;;;;;;;24.30;46.30;;;;;;8397341;28;20355;-47
2021/09/09 12:12:22;;;;;;;;;;;24.30;46.40;;;;;;8397193;28;19917;-48
2021/09/09 12:16:24;;;;;;;;;;;24.30;46.40;;;;;;8397646;28;19920;-46
2021/09/09 12:20:25;;;;;;;;;;;24.30;46.30;;;;;;8396949;28;19966;-46
2021/09/09 12:24:29;;;;;;;;;;;24.30;46.30;;;;;;8396833;28;20365;-48
2021/09/09 12:28:29;;;;;;;;;;;24.30;46.30;;;;;;8396565;28;20438;-47
2021/09/09 12:32:30;;;;;;;;;;;24.30;46.30;;;;;;8397366;28;19913;-46
2021/09/09 12:36:37;;;;;;;;;;;24.30;46.20;;;;;;8396978;28;19921;-47
2021/09/09 12:40:43;;;;;;;;;;;24.40;46.30;;;;;;8396338;28;19924;-48
2021/09/09 12:44:43;;;;;;;;;;;24.40;46.30;;;;;;8396787;28;20003;-48
2021/09/09 12:48:57;;;;;;;;;;;24.40;46.30;;;;;;8396505;28;20316;-48
2021/09/09 12:52:58;;;;;;;;;;;24.40;46.30;;;;;;8395029;28;19921;-48
2021/09/09 12:56:58;;;;;;;;;;;24.40;46.30;;;;;;8366729;28;19917;-47
2021/09/09 13:00:59;;;;;;;;;;;24.40;46.30;;;;;;8362681;28;19917;-48
2021/09/09 13:04:59;;;;;;;;;;;24.40;46.30;;;;;;8363005;28;19963;-48
2021/09/09 13:09:00;;;;;;;;;;;24.40;46.30;;;;;;8363701;28;19921;-47
2021/09/09 13:13:00;;;;;;;;;;;24.40;46.30;;;;;;8362608;28;19965;-47
2021/09/09 13:17:01;;;;;;;;;;;24.40;46.30;;;;;;8362662;28;19917;-47
2021/09/09 13:21:01;;;;;;;;;;;24.40;46.30;;;;;;8363066;28;19917;-47
2021/09/09 13:25:02;;;;;;;;;;;24.40;46.30;;;;;;8362472;28;19921;-47
2021/09/09 13:29:03;;;;;;;;;;;24.40;46.30;;;;;;8364095;28;19999;-47
2021/09/09 13:33:04;;;;;;;;;;;24.40;46.30;;;;;;8369798;28;20011;-46
2021/09/09 13:37:04;;;;;;;;;;;24.40;46.30;;;;;;8368807;28;19974;-49
2021/09/09 13:41:05;;;;;;;;;;;24.40;46.20;;;;;;8369233;28;19924;-46
2021/09/09 13:45:08;;;;;;;;;;;24.40;46.20;;;;;;8369704;28;20441;-47
2021/09/09 13:49:08;;;;;;;;;;;24.40;46.20;;;;;;8368432;28;19916;-47
2021/09/09 13:53:08;;;;;;;;;;;24.40;46.80;;;;;;8368792;28;19928;-48
2021/09/09 13:57:09;;;;;;;;;;;24.40;46.20;;;;;;8368405;28;19921;-47
2021/09/09 14:01:11;;;;;;;;;;;24.40;46.30;;;;;;8368004;28;19913;-46
2021/09/09 14:05:11;;;;;;;;;;;24.40;46.30;;;;;;8368825;28;19919;-47
2021/09/09 14:09:12;;;;;;;;;;;24.50;46.20;;;;;;8367867;28;19921;-46
2021/09/09 14:13:12;;;;;;;;;;;24.50;46.10;;;;;;8367396;28;20412;-46
2021/09/09 14:17:12;;;;;;;;;;;24.50;45.90;;;;;;8368141;28;20007;-47
2021/09/09 14:21:13;;;;;;;;;;;24.50;45.80;;;;;;8368559;28;19935;-46
2021/09/09 14:25:13;;;;;;;;;;;24.50;45.60;;;;;;8367154;28;20385;-49
2021/09/09 14:29:16;;;;;;;;;;;24.50;45.30;;;;;;8367720;28;19928;-47
2021/09/09 14:33:17;;;;;;;;;;;24.50;45.80;;;;;;8367265;28;19929;-48
2021/09/09 14:37:18;;;;;;;;;;;24.50;45.20;;;;;;8367379;28;19982;-47
2021/09/09 14:41:18;;;;;;;;;;;24.50;44.90;;;;;;8367459;28;20352;-48
2021/09/09 14:45:19;;;;;;;;;;;24.50;45.10;;;;;;8366985;28;20325;-47
2021/09/09 14:49:19;;;;;;;;;;;24.60;45.00;;;;;;8366460;28;19916;-48
2021/09/09 14:53:20;;;;;;;;;;;24.60;45.40;;;;;;8366868;28;19921;-48
2021/09/09 14:57:20;;;;;;;;;;;24.60;44.80;;;;;;8367311;28;19967;-47
2021/09/09 15:01:21;;;;;;;;;;;24.60;44.70;;;;;;8366145;28;19917;-48
2021/09/09 15:05:21;;;;;;;;;;;24.60;44.60;;;;;;8366359;28;19916;-47
2021/09/09 15:09:22;;;;;;;;;;;24.60;44.70;;;;;;8366248;28;19948;-46
2021/09/09 15:13:22;;;;;;;;;;;24.60;44.90;;;;;;8366235;28;19928;-47
2021/09/09 15:17:23;;;;;;;;;;;24.60;44.80;;;;;;8366053;28;19921;-48
2021/09/09 15:21:24;;;;;;;;;;;24.60;44.90;;;;;;8385062;28;19921;-47
2021/09/09 15:25:25;;;;;;;;;;;24.60;45.00;;;;;;8398326;28;19962;-47
2021/09/09 15:29:25;;;;;;;;;;;24.60;44.90;;;;;;8399641;28;19912;-48
2021/09/09 15:33:26;;;;;;;;;;;24.60;44.80;;;;;;8398685;28;19924;-47
2021/09/09 15:37:26;;;;;;;;;;;24.60;44.80;;;;;;8398068;28;20296;-46
2021/09/09 15:41:27;;;;;;;;;;;24.60;44.60;;;;;;8398794;28;20472;-46
2021/09/09 15:45:27;;;;;;;;;;;24.60;44.70;;;;;;8398068;28;19956;-46
2021/09/09 15:49:28;;;;;;;;;;;24.60;44.70;;;;;;8398420;28;20273;-49
2021/09/09 15:53:28;;;;;;;;;;;24.60;44.70;;;;;;8397528;28;20324;-47
2021/09/09 15:57:29;;;;;;;;;;;24.60;44.60;;;;;;8397888;28;20242;-47
2021/09/09 16:01:33;;;;;;;;;;;24.60;44.80;;;;;;8397162;28;19920;-48
2021/09/09 16:05:33;;;;;;;;;;;24.60;44.80;;;;;;8398460;28;19947;-47
2021/09/09 16:09:34;;;;;;;;;;;24.60;44.90;;;;;;8397263;28;20415;-48
2021/09/09 16:13:36;;;;;;;;;;;24.60;45.00;;;;;;8396814;28;20013;-48
2021/09/09 16:17:37;;;;;;;;;;;24.60;45.10;;;;;;8397361;28;20003;-49
2021/09/09 16:21:38;;;;;;;;;;;24.60;45.10;;;;;;8397264;28;20242;-47
2021/09/09 16:25:38;;;;;;;;;;;24.60;45.20;;;;;;8397491;28;19912;-47
2021/09/09 16:29:39;;;;;;;;;;;24.60;45.30;;;;;;8396840;28;19921;-48
2021/09/09 16:33:39;;;;;;;;;;;24.60;45.30;;;;;;8396719;28;19970;-47
2021/09/09 16:37:40;;;;;;;;;;;24.60;45.40;;;;;;8396242;28;19924;-48
2021/09/09 16:41:40;;;;;;;;;;;24.50;45.30;;;;;;8397392;28;20007;-47
2021/09/09 16:45:41;;;;;;;;;;;24.60;45.40;;;;;;8396671;28;20373;-48
2021/09/09 16:49:41;;;;;;;;;;;24.60;45.40;;;;;;8378123;28;19917;-48
2021/09/09 16:53:42;;;;;;;;;;;24.60;45.40;;;;;;8363085;28;19924;-48
2021/09/09 16:57:44;;;;;;;;;;;24.60;45.50;;;;;;8363895;28;19913;-47
2021/09/09 17:01:46;;;;;;;;;;;24.60;45.50;;;;;;8362736;28;19921;-47
2021/09/09 17:05:46;;;;;;;;;;;24.60;45.50;;;;;;8366426;28;19939;-47
2021/09/09 17:09:48;;;;;;;;;;;24.50;45.50;;;;;;8369923;28;20011;-48
2021/09/09 17:13:48;;;;;;;;;;;24.50;45.50;;;;;;8369280;28;20023;-48
2021/09/09 17:17:49;;;;;;;;;;;24.50;45.50;;;;;;8370414;28;19916;-47
2021/09/09 17:21:49;;;;;;;;;;;24.50;45.50;;;;;;8369614;28;19923;-47
2021/09/09 17:25:49;;;;;;;;;;;24.50;45.50;;;;;;8368792;28;19916;-47
2021/09/09 17:29:50;;;;;;;;;;;24.50;45.50;;;;;;8369459;28;19917;-47
2021/09/09 17:33:51;;;;;;;;;;;24.50;45.60;;;;;;8370350;28;20384;-48
2021/09/09 17:37:51;;;;;;;;;;;24.50;45.60;;;;;;8368728;28;20373;-49
2021/09/09 17:41:51;;;;;;;;;;;24.50;45.60;;;;;;8368918;28;19948;-48
2021/09/09 17:45:52;;;;;;;;;;;24.50;45.60;;;;;;8368526;28;20278;-47
2021/09/09 17:49:53;;;;;;;;;;;24.50;45.60;;;;;;8395836;28;19925;-50
2021/09/09 17:53:53;;;;;;;;;;;24.50;45.60;;;;;;8399372;28;19966;-47
2021/09/09 17:57:54;;;;;;;;;;;24.50;45.60;;;;;;8396724;28;19928;-48
2021/09/09 18:01:54;;;;;;;;;;;24.50;45.60;;;;;;8393173;28;19917;-48
2021/09/09 18:05:55;;;;;;;;;;;24.50;45.60;;;;;;8397718;28;19925;-47
2021/09/09 18:09:55;;;;;;;;;;;24.50;45.70;;;;;;8386039;28;20004;-48
2021/09/09 18:13:56;;;;;;;;;;;24.50;45.70;;;;;;8390117;28;20011;-49
2021/09/09 18:17:56;;;;;;;;;;;24.40;45.60;;;;;;8383113;28;19923;-51
2021/09/09 18:21:56;;;;;;;;;;;24.50;45.70;;;;;;8366874;28;19921;-52
2021/09/09 18:25:57;;;;;;;;;;;24.50;45.70;;;;;;8367822;28;19913;-47
2021/09/09 18:29:58;;;;;;;;;;;24.50;45.70;;;;;;8367054;28;20417;-49
2021/09/09 18:33:58;;;;;;;;;;;24.50;45.70;;;;;;8378667;28;20377;-47
2021/09/09 18:37:59;;;;;;;;;;;24.40;45.70;;;;;;8384379;28;20000;-48
2021/09/09 18:41:59;;;;;;;;;;;24.50;45.70;;;;;;8390326;28;19947;-47
2021/09/09 18:46:00;;;;;;;;;;;24.40;45.70;;;;;;8380842;28;19958;-48
2021/09/09 18:50:00;;;;;;;;;;;24.40;46.20;;;;;;8375557;28;20007;-48
2021/09/09 18:54:01;;;;;;;;;;;24.40;45.70;;;;;;8366107;28;19967;-48
2021/09/09 18:58:01;;;;;;;;;;;24.40;45.70;;;;;;8365782;28;19924;-48
2021/09/09 19:02:02;;;;;;;;;;;24.40;45.70;;;;;;8381091;28;19920;-50
2021/09/09 19:06:02;;;;;;;;;;;24.40;45.70;;;;;;8394991;28;19942;-48
2021/09/09 19:10:04;;;;;;;;;;;24.40;45.70;;;;;;8381454;28;19963;-48
2021/09/09 19:14:04;;;;;;;;;;;24.40;45.70;;;;;;8365962;28;19925;-48
2021/09/09 19:18:04;;;;;;;;;;;24.40;45.70;;;;;;8366619;28;19924;-48
2021/09/09 19:22:05;;;;;;;;;;;24.40;45.70;;;;;;8365394;28;20397;-50
2021/09/09 19:26:06;;;;;;;;;;;24.40;45.70;;;;;;8365702;28;19931;-48
2021/09/09 19:30:06;;;;;;;;;;;24.40;45.70;;;;;;8364784;28;19971;-49
2021/09/09 19:34:07;;;;;;;;;;;24.40;45.70;;;;;;8365057;28;20289;-48
2021/09/09 19:38:07;;;;;;;;;;;24.30;45.70;;;;;;8366086;28;20000;-48
2021/09/09 19:42:08;;;;;;;;;;;24.30;45.70;;;;;;8365254;28;19917;-47
2021/09/09 19:46:09;;;;;;;;;;;24.30;45.70;;;;;;8364577;28;19917;-49
2021/09/09 19:50:09;;;;;;;;;;;24.30;45.70;;;;;;8365301;28;19921;-48
2021/09/09 19:54:10;;;;;;;;;;;24.30;45.70;;;;;;8365421;28;19921;-48
2021/09/09 19:58:10;;;;;;;;;;;24.30;45.70;;;;;;8364679;28;19917;-48
2021/09/09 20:02:10;;;;;;;;;;;24.30;45.70;;;;;;8364400;28;20007;-48
2021/09/09 20:06:11;;;;;;;;;;;24.30;45.70;;;;;;8364423;28;20293;-49
2021/09/09 20:10:11;;;;;;;;;;;24.30;45.70;;;;;;8365034;28;20027;-49
2021/09/09 20:14:12;;;;;;;;;;;24.30;45.70;;;;;;8364526;28;19932;-49
2021/09/09 20:18:12;;;;;;;;;;;24.30;45.70;;;;;;8364199;28;19917;-49
2021/09/09 20:22:15;;;;;;;;;;;24.30;45.70;;;;;;8363441;28;22370;-49
2021/09/09 20:26:16;;;;;;;;;;;24.30;45.70;;;;;;8363791;28;19944;-49
2021/09/09 20:30:17;;;;;;;;;;;24.30;45.80;;;;;;8364521;28;19944;-52
2021/09/09 20:34:17;;;;;;;;;;;24.30;45.80;;;;;;8363132;28;19925;-47
2021/09/09 20:38:18;;;;;;;;;;;24.30;45.80;;;;;;8363657;28;19916;-47
2021/09/09 20:42:18;;;;;;;;;;;24.30;45.90;;;;;;8363594;28;20385;-50
2021/09/09 20:46:19;;;;;;;;;;;24.30;45.90;;;;;;8362347;28;19917;-50
2021/09/09 20:50:19;;;;;;;;;;;24.30;45.90;;;;;;8363391;28;20007;-46
2021/09/09 20:54:20;;;;;;;;;;;24.30;45.90;;;;;;8363374;28;19971;-47
2021/09/09 20:58:20;;;;;;;;;;;24.30;46.00;;;;;;8362738;28;19917;-47
2021/09/09 21:02:21;;;;;;;;;;;24.30;46.00;;;;;;8363289;28;19913;-46
2021/09/09 21:06:21;;;;;;;;;;;24.30;46.00;;;;;;8363746;28;19996;-46
2021/09/09 21:10:22;;;;;;;;;;;24.20;45.90;;;;;;8362383;28;20266;-48
2021/09/09 21:14:22;;;;;;;;;;;24.20;45.90;;;;;;8362921;28;19932;-50
2021/09/09 21:18:23;;;;;;;;;;;24.30;46.00;;;;;;8363037;28;19917;-47
2021/09/09 21:22:23;;;;;;;;;;;24.20;45.90;;;;;;8363260;28;19917;-47
2021/09/09 21:26:24;;;;;;;;;;;24.20;46.00;;;;;;8363104;28;20062;-47
2021/09/09 21:30:24;;;;;;;;;;;24.20;46.00;;;;;;8362805;28;19995;-47
2021/09/09 21:34:24;;;;;;;;;;;24.20;46.00;;;;;;8377670;28;19978;-46
2021/09/09 21:38:25;;;;;;;;;;;24.20;46.00;;;;;;8363306;28;19917;-46
2021/09/09 21:42:25;;;;;;;;;;;24.20;46.00;;;;;;8362565;28;20391;-47
2021/09/09 21:46:26;;;;;;;;;;;24.20;46.00;;;;;;8362204;28;19917;-47
2021/09/09 21:50:27;;;;;;;;;;;24.20;46.00;;;;;;8363044;28;20024;-46
2021/09/09 21:54:27;;;;;;;;;;;24.20;46.00;;;;;;8368554;28;19929;-46
2021/09/09 21:58:27;;;;;;;;;;;24.20;46.00;;;;;;8368850;28;20267;-47
2021/09/09 22:02:28;;;;;;;;;;;24.20;46.10;;;;;;8381813;28;19917;-47
2021/09/09 22:06:28;;;;;;;;;;;24.20;46.10;;;;;;8386825;28;19919;-47
2021/09/09 22:10:29;;;;;;;;;;;24.20;46.10;;;;;;8367402;28;19921;-47
2021/09/09 22:14:29;;;;;;;;;;;24.20;46.10;;;;;;8368745;28;20267;-46
2021/09/09 22:18:30;;;;;;;;;;;24.20;46.10;;;;;;8367914;28;19940;-46
2021/09/09 22:22:30;;;;;;;;;;;24.10;46.10;;;;;;8367378;28;20420;-47
2021/09/09 22:26:31;;;;;;;;;;;24.10;46.00;;;;;;8367805;28;19928;-46
2021/09/09 22:30:31;;;;;;;;;;;24.10;46.10;;;;;;8368112;28;19913;-46
2021/09/09 22:34:32;;;;;;;;;;;24.10;46.10;;;;;;8366984;28;19993;-46
2021/09/09 22:38:32;;;;;;;;;;;24.10;46.10;;;;;;8367275;28;19916;-47
2021/09/09 22:42:33;;;;;;;;;;;24.10;46.10;;;;;;8367303;28;19916;-46
2021/09/09 22:46:33;;;;;;;;;;;24.10;46.10;;;;;;8366626;28;19959;-46
2021/09/09 22:50:34;;;;;;;;;;;24.10;46.10;;;;;;8367649;28;19920;-49
2021/09/09 22:54:34;;;;;;;;;;;24.10;46.10;;;;;;8366848;28;19956;-47
2021/09/09 22:58:35;;;;;;;;;;;24.10;46.20;;;;;;8366398;28;19970;-46
2021/09/09 23:02:35;;;;;;;;;;;24.10;46.10;;;;;;8365511;28;19920;-48
2021/09/09 23:06:36;;;;;;;;;;;24.10;46.10;;;;;;8367464;28;19920;-46
2021/09/09 23:10:36;;;;;;;;;;;24.10;46.10;;;;;;8365749;28;19920;-47
2021/09/09 23:14:37;;;;;;;;;;;24.10;46.70;;;;;;8366414;28;20507;-47
2021/09/09 23:18:37;;;;;;;;;;;24.10;46.20;;;;;;8365892;28;19917;-47
2021/09/09 23:22:38;;;;;;;;;;;24.10;46.20;;;;;;8366154;28;19978;-46